sensor_id;sensor_type;location;lat;lon;timestamp;temperature;humidity
7814;DHT22;3952;48.364;16.022;2023-02-10T00:02:15;-3.30;99.90
7814;DHT22;3952;48.364;16.022;2023-02-10T00:04:44;-3.40;99.90
7814;DHT22;3952;48.364;16.022;2023-02-10T00:07:11;-3.40;99.90
7814;DHT22;3952;48.364;16.022;2023-02-10T00:09:38;-3.40;99.90
7814;DHT22;3952;48.364;16.022;2023-02-10T00:12:06;-3.50;99.90
7814;DHT22;3952;48.364;16.022;2023-02-10T00:14:34;-3.50;99.90
7814;DHT22;3952;48.364;16.022;2023-02-10T00:17:01;-3.60;99.90
7814;DHT22;3952;48.364;16.022;2023-02-10T00:19:29;-3.70;99.90
7814;DHT22;3952;48.364;16.022;2023-02-10T00:22:06;-3.70;99.90
7814;DHT22;3952;48.364;16.022;2023-02-10T00:24:39;-3.70;99.90
7814;DHT22;3952;48.364;16.022;2023-02-10T00:27:06;-3.70;99.90
7814;DHT22;3952;48.364;16.022;2023-02-10T00:29:33;-3.70;99.90
7814;DHT22;3952;48.364;16.022;2023-02-10T00:32:01;-3.70;99.90
7814;DHT22;3952;48.364;16.022;2023-02-10T00:34:28;-3.80;99.90
7814;DHT22;3952;48.364;16.022;2023-02-10T00:36:55;-3.70;99.90
7814;DHT22;3952;48.364;16.022;2023-02-10T00:39:24;-3.60;99.90
7814;DHT22;3952;48.364;16.022;2023-02-10T00:41:51;-3.60;99.90
7814;DHT22;3952;48.364;16.022;2023-02-10T00:44:18;-3.50;99.90
7814;DHT22;3952;48.364;16.022;2023-02-10T00:46:46;-3.50;99.90
7814;DHT22;3952;48.364;16.022;2023-02-10T00:49:13;-3.50;99.90
7814;DHT22;3952;48.364;16.022;2023-02-10T00:51:40;-3.50;99.90
7814;DHT22;3952;48.364;16.022;2023-02-10T00:54:08;-3.50;99.90
7814;DHT22;3952;48.364;16.022;2023-02-10T00:56:37;-3.50;99.90
7814;DHT22;3952;48.364;16.022;2023-02-10T00:59:04;-3.60;99.90
7814;DHT22;3952;48.364;16.022;2023-02-10T01:01:31;-3.60;99.90
7814;DHT22;3952;48.364;16.022;2023-02-10T01:03:59;-1.90;99.90
7814;DHT22;3952;48.364;16.022;2023-02-10T01:06:26;-3.60;99.90
7814;DHT22;3952;48.364;16.022;2023-02-10T01:08:53;-3.60;99.90
7814;DHT22;3952;48.364;16.022;2023-02-10T01:11:20;-3.60;99.90
7814;DHT22;3952;48.364;16.022;2023-02-10T01:13:50;-3.70;99.90
7814;DHT22;3952;48.364;16.022;2023-02-10T01:16:17;-3.80;99.90
7814;DHT22;3952;48.364;16.022;2023-02-10T01:18:45;-3.90;99.90
7814;DHT22;3952;48.364;16.022;2023-02-10T01:21:14;-3.90;99.90
7814;DHT22;3952;48.364;16.022;2023-02-10T01:23:42;-4.00;99.90
7814;DHT22;3952;48.364;16.022;2023-02-10T01:26:09;-4.10;99.90
7814;DHT22;3952;48.364;16.022;2023-02-10T01:28:37;-4.20;99.90
7814;DHT22;3952;48.364;16.022;2023-02-10T01:31:06;-4.10;99.90
7814;DHT22;3952;48.364;16.022;2023-02-10T01:33:34;-4.20;99.90
7814;DHT22;3952;48.364;16.022;2023-02-10T01:36:04;-4.30;99.90
7814;DHT22;3952;48.364;16.022;2023-02-10T01:38:31;-4.40;99.90
7814;DHT22;3952;48.364;16.022;2023-02-10T01:40:59;-4.40;99.90
7814;DHT22;3952;48.364;16.022;2023-02-10T01:43:26;-4.40;99.90
7814;DHT22;3952;48.364;16.022;2023-02-10T01:45:53;-4.50;99.90
7814;DHT22;3952;48.364;16.022;2023-02-10T01:48:23;-4.50;99.90
7814;DHT22;3952;48.364;16.022;2023-02-10T01:50:54;-4.50;99.90
7814;DHT22;3952;48.364;16.022;2023-02-10T01:53:23;-4.40;99.90
7814;DHT22;3952;48.364;16.022;2023-02-10T01:55:53;-4.50;99.90
7814;DHT22;3952;48.364;16.022;2023-02-10T01:58:23;-4.50;99.90
7814;DHT22;3952;48.364;16.022;2023-02-10T02:00:52;-4.50;99.90
7814;DHT22;3952;48.364;16.022;2023-02-10T02:03:19;-4.50;99.90
7814;DHT22;3952;48.364;16.022;2023-02-10T02:05:48;-4.60;99.90
7814;DHT22;3952;48.364;16.022;2023-02-10T02:08:17;-4.60;99.90
7814;DHT22;3952;48.364;16.022;2023-02-10T02:10:58;-4.70;99.90
7814;DHT22;3952;48.364;16.022;2023-02-10T02:13:41;-4.70;99.90
7814;DHT22;3952;48.364;16.022;2023-02-10T02:16:20;-5.50;99.90
7814;DHT22;3952;48.364;16.022;2023-02-10T02:18:57;-4.80;99.90
7814;DHT22;3952;48.364;16.022;2023-02-10T02:22:17;-4.80;99.90
7814;DHT22;3952;48.364;16.022;2023-02-10T02:25:02;-4.80;99.90
7814;DHT22;3952;48.364;16.022;2023-02-10T02:27:46;-4.80;99.90
7814;DHT22;3952;48.364;16.022;2023-02-10T02:30:46;-4.80;99.90
7814;DHT22;3952;48.364;16.022;2023-02-10T02:33:23;-4.70;99.90
7814;DHT22;3952;48.364;16.022;2023-02-10T02:35:55;-4.70;99.90
7814;DHT22;3952;48.364;16.022;2023-02-10T02:38:24;-4.70;99.90
7814;DHT22;3952;48.364;16.022;2023-02-10T02:40:52;-4.60;99.90
7814;DHT22;3952;48.364;16.022;2023-02-10T02:43:21;-4.60;99.90
7814;DHT22;3952;48.364;16.022;2023-02-10T02:45:53;-4.60;99.90
7814;DHT22;3952;48.364;16.022;2023-02-10T02:48:40;-4.70;99.90
7814;DHT22;3952;48.364;16.022;2023-02-10T02:51:16;-4.80;99.90
7814;DHT22;3952;48.364;16.022;2023-02-10T02:53:49;-4.80;99.90
7814;DHT22;3952;48.364;16.022;2023-02-10T02:56:27;-4.90;99.90
7814;DHT22;3952;48.364;16.022;2023-02-10T02:59:02;-4.90;99.90
7814;DHT22;3952;48.364;16.022;2023-02-10T03:01:35;-5.00;99.90
7814;DHT22;3952;48.364;16.022;2023-02-10T03:04:05;-5.00;99.90
7814;DHT22;3952;48.364;16.022;2023-02-10T03:06:34;-5.10;99.90
7814;DHT22;3952;48.364;16.022;2023-02-10T03:09:01;-5.10;99.90
7814;DHT22;3952;48.364;16.022;2023-02-10T03:11:28;-5.10;99.90
7814;DHT22;3952;48.364;16.022;2023-02-10T03:13:56;-5.10;99.90
7814;DHT22;3952;48.364;16.022;2023-02-10T03:16:23;-5.10;99.90
7814;DHT22;3952;48.364;16.022;2023-02-10T03:18:50;-5.20;99.90
7814;DHT22;3952;48.364;16.022;2023-02-10T03:21:19;-5.10;99.90
7814;DHT22;3952;48.364;16.022;2023-02-10T03:23:46;-5.10;99.90
7814;DHT22;3952;48.364;16.022;2023-02-10T03:26:13;-5.10;99.90
7814;DHT22;3952;48.364;16.022;2023-02-10T03:28:40;-5.10;99.90
7814;DHT22;3952;48.364;16.022;2023-02-10T03:31:08;-5.10;99.90
7814;DHT22;3952;48.364;16.022;2023-02-10T03:33:36;-5.20;99.90
7814;DHT22;3952;48.364;16.022;2023-02-10T03:36:04;-5.20;99.90
7814;DHT22;3952;48.364;16.022;2023-02-10T03:38:32;-5.20;99.90
7814;DHT22;3952;48.364;16.022;2023-02-10T03:41:00;-5.20;99.90
7814;DHT22;3952;48.364;16.022;2023-02-10T03:43:27;-5.20;99.90
7814;DHT22;3952;48.364;16.022;2023-02-10T03:45:54;-5.30;99.90
7814;DHT22;3952;48.364;16.022;2023-02-10T03:48:21;-5.30;99.90
7814;DHT22;3952;48.364;16.022;2023-02-10T03:50:52;-5.30;99.90
7814;DHT22;3952;48.364;16.022;2023-02-10T03:53:19;-5.40;99.90
7814;DHT22;3952;48.364;16.022;2023-02-10T03:55:48;-5.40;99.90
7814;DHT22;3952;48.364;16.022;2023-02-10T03:58:15;-5.40;99.90
7814;DHT22;3952;48.364;16.022;2023-02-10T04:00:43;-6.20;99.90
7814;DHT22;3952;48.364;16.022;2023-02-10T04:03:10;-5.40;99.90
7814;DHT22;3952;48.364;16.022;2023-02-10T04:05:37;-5.30;99.90
7814;DHT22;3952;48.364;16.022;2023-02-10T04:08:05;-5.20;99.90
7814;DHT22;3952;48.364;16.022;2023-02-10T04:10:32;-5.20;99.90
7814;DHT22;3952;48.364;16.022;2023-02-10T04:13:01;-5.20;99.90
7814;DHT22;3952;48.364;16.022;2023-02-10T04:15:28;-5.10;99.90
7814;DHT22;3952;48.364;16.022;2023-02-10T04:17:55;-5.20;99.90
7814;DHT22;3952;48.364;16.022;2023-02-10T04:20:23;-5.20;99.90
7814;DHT22;3952;48.364;16.022;2023-02-10T04:22:50;-5.30;99.90
7814;DHT22;3952;48.364;16.022;2023-02-10T04:25:17;-5.30;99.90
7814;DHT22;3952;48.364;16.022;2023-02-10T04:27:44;-5.40;99.90
7814;DHT22;3952;48.364;16.022;2023-02-10T04:30:13;-5.40;99.90
7814;DHT22;3952;48.364;16.022;2023-02-10T04:32:41;-5.40;99.90
7814;DHT22;3952;48.364;16.022;2023-02-10T04:35:08;-5.40;99.90
7814;DHT22;3952;48.364;16.022;2023-02-10T04:37:35;-5.40;99.90
7814;DHT22;3952;48.364;16.022;2023-02-10T04:40:03;-5.40;99.90
7814;DHT22;3952;48.364;16.022;2023-02-10T04:42:30;-5.40;99.90
7814;DHT22;3952;48.364;16.022;2023-02-10T04:44:58;-5.50;99.90
7814;DHT22;3952;48.364;16.022;2023-02-10T04:47:27;-5.50;99.90
7814;DHT22;3952;48.364;16.022;2023-02-10T04:49:54;-5.50;99.90
7814;DHT22;3952;48.364;16.022;2023-02-10T04:52:21;-5.60;99.90
7814;DHT22;3952;48.364;16.022;2023-02-10T04:54:49;-5.50;99.90
7814;DHT22;3952;48.364;16.022;2023-02-10T04:57:16;-5.50;99.90
7814;DHT22;3952;48.364;16.022;2023-02-10T04:59:43;-5.60;99.90
7814;DHT22;3952;48.364;16.022;2023-02-10T05:02:11;-5.60;99.90
7814;DHT22;3952;48.364;16.022;2023-02-10T05:04:39;-5.60;99.90
7814;DHT22;3952;48.364;16.022;2023-02-10T05:07:07;-5.60;99.90
7814;DHT22;3952;48.364;16.022;2023-02-10T05:09:34;-5.60;99.90
7814;DHT22;3952;48.364;16.022;2023-02-10T05:12:01;-5.60;99.90
7814;DHT22;3952;48.364;16.022;2023-02-10T05:14:28;-5.50;99.90
7814;DHT22;3952;48.364;16.022;2023-02-10T05:16:56;-5.50;99.90
7814;DHT22;3952;48.364;16.022;2023-02-10T05:19:23;-5.50;99.90
7814;DHT22;3952;48.364;16.022;2023-02-10T05:21:51;-5.50;99.90
7814;DHT22;3952;48.364;16.022;2023-02-10T05:24:18;-5.60;99.90
7814;DHT22;3952;48.364;16.022;2023-02-10T05:26:46;-5.60;99.90
7814;DHT22;3952;48.364;16.022;2023-02-10T05:29:13;-5.50;99.90
7814;DHT22;3952;48.364;16.022;2023-02-10T05:31:40;-5.50;99.90
7814;DHT22;3952;48.364;16.022;2023-02-10T05:34:07;-5.50;99.90
7814;DHT22;3952;48.364;16.022;2023-02-10T05:36:35;-5.50;99.90
7814;DHT22;3952;48.364;16.022;2023-02-10T05:39:03;-5.60;99.90
7814;DHT22;3952;48.364;16.022;2023-02-10T05:41:48;-5.60;99.90
7814;DHT22;3952;48.364;16.022;2023-02-10T05:44:16;-5.60;99.90
7814;DHT22;3952;48.364;16.022;2023-02-10T05:46:43;-5.60;99.90
7814;DHT22;3952;48.364;16.022;2023-02-10T05:49:10;-5.70;99.90
7814;DHT22;3952;48.364;16.022;2023-02-10T05:51:38;-5.80;99.90
7814;DHT22;3952;48.364;16.022;2023-02-10T05:54:06;-5.80;99.90
7814;DHT22;3952;48.364;16.022;2023-02-10T05:56:34;-5.90;99.90
7814;DHT22;3952;48.364;16.022;2023-02-10T05:59:01;-5.90;99.90
7814;DHT22;3952;48.364;16.022;2023-02-10T06:01:28;-5.90;99.90
7814;DHT22;3952;48.364;16.022;2023-02-10T06:03:56;-5.90;99.90
7814;DHT22;3952;48.364;16.022;2023-02-10T06:06:23;-5.90;99.90
7814;DHT22;3952;48.364;16.022;2023-02-10T06:08:50;-5.90;99.90
7814;DHT22;3952;48.364;16.022;2023-02-10T06:11:19;-4.40;99.90
7814;DHT22;3952;48.364;16.022;2023-02-10T06:13:46;-5.90;99.90
7814;DHT22;3952;48.364;16.022;2023-02-10T06:16:13;-5.80;99.90
7814;DHT22;3952;48.364;16.022;2023-02-10T06:18:41;-5.90;99.90
7814;DHT22;3952;48.364;16.022;2023-02-10T06:21:08;-5.90;99.90
7814;DHT22;3952;48.364;16.022;2023-02-10T06:23:35;-5.90;99.90
7814;DHT22;3952;48.364;16.022;2023-02-10T06:26:03;-6.00;99.90
7814;DHT22;3952;48.364;16.022;2023-02-10T06:28:31;-6.00;99.90
7814;DHT22;3952;48.364;16.022;2023-02-10T06:30:59;-6.00;99.90
7814;DHT22;3952;48.364;16.022;2023-02-10T06:33:26;-4.60;99.90
7814;DHT22;3952;48.364;16.022;2023-02-10T06:35:53;-6.00;99.90
7814;DHT22;3952;48.364;16.022;2023-02-10T06:38:21;-6.00;99.90
7814;DHT22;3952;48.364;16.022;2023-02-10T06:40:48;-5.90;99.90
7814;DHT22;3952;48.364;16.022;2023-02-10T06:43:15;-5.90;99.90
7814;DHT22;3952;48.364;16.022;2023-02-10T06:45:44;-5.80;99.90
7814;DHT22;3952;48.364;16.022;2023-02-10T06:48:11;-5.80;99.90
7814;DHT22;3952;48.364;16.022;2023-02-10T06:50:38;-5.70;99.90
7814;DHT22;3952;48.364;16.022;2023-02-10T06:53:06;-5.80;99.90
7814;DHT22;3952;48.364;16.022;2023-02-10T06:55:36;-5.80;99.90
7814;DHT22;3952;48.364;16.022;2023-02-10T06:58:04;-5.70;99.90
7814;DHT22;3952;48.364;16.022;2023-02-10T07:00:31;-5.60;99.90
7814;DHT22;3952;48.364;16.022;2023-02-10T07:03:00;-5.60;99.90
7814;DHT22;3952;48.364;16.022;2023-02-10T07:05:27;-5.50;99.90
7814;DHT22;3952;48.364;16.022;2023-02-10T07:07:54;-5.40;99.90
7814;DHT22;3952;48.364;16.022;2023-02-10T07:10:24;-5.30;99.90
7814;DHT22;3952;48.364;16.022;2023-02-10T07:12:51;-5.10;99.90
7814;DHT22;3952;48.364;16.022;2023-02-10T07:15:18;-4.70;99.90
7814;DHT22;3952;48.364;16.022;2023-02-10T07:17:48;-4.20;99.90
7814;DHT22;3952;48.364;16.022;2023-02-10T07:20:18;-3.60;99.90
7814;DHT22;3952;48.364;16.022;2023-02-10T07:22:45;-3.00;99.90
7814;DHT22;3952;48.364;16.022;2023-02-10T07:25:12;-2.50;99.90
7814;DHT22;3952;48.364;16.022;2023-02-10T07:27:39;-2.00;99.90
7814;DHT22;3952;48.364;16.022;2023-02-10T07:30:07;-1.40;99.90
7814;DHT22;3952;48.364;16.022;2023-02-10T07:32:34;-1.00;99.90
7814;DHT22;3952;48.364;16.022;2023-02-10T07:35:02;-0.50;99.90
7814;DHT22;3952;48.364;16.022;2023-02-10T07:37:30;-0.20;99.90
7814;DHT22;3952;48.364;16.022;2023-02-10T07:39:58;0.20;99.90
7814;DHT22;3952;48.364;16.022;2023-02-10T07:42:25;0.60;99.90
7814;DHT22;3952;48.364;16.022;2023-02-10T07:44:52;1.00;99.90
7814;DHT22;3952;48.364;16.022;2023-02-10T07:47:20;1.30;99.90
7814;DHT22;3952;48.364;16.022;2023-02-10T07:49:47;1.60;99.90
7814;DHT22;3952;48.364;16.022;2023-02-10T07:52:14;1.80;99.90
7814;DHT22;3952;48.364;16.022;2023-02-10T07:54:43;2.00;99.90
7814;DHT22;3952;48.364;16.022;2023-02-10T07:57:10;2.10;99.90
7814;DHT22;3952;48.364;16.022;2023-02-10T07:59:37;2.10;99.90
7814;DHT22;3952;48.364;16.022;2023-02-10T08:02:05;2.30;99.90
7814;DHT22;3952;48.364;16.022;2023-02-10T08:04:32;2.50;99.90
7814;DHT22;3952;48.364;16.022;2023-02-10T08:06:59;2.80;99.90
7814;DHT22;3952;48.364;16.022;2023-02-10T08:09:27;2.90;99.90
7814;DHT22;3952;48.364;16.022;2023-02-10T08:11:55;3.10;99.90
7814;DHT22;3952;48.364;16.022;2023-02-10T08:14:22;3.30;99.90
7814;DHT22;3952;48.364;16.022;2023-02-10T08:16:50;3.60;99.90
7814;DHT22;3952;48.364;16.022;2023-02-10T08:19:17;3.80;99.90
7814;DHT22;3952;48.364;16.022;2023-02-10T08:21:44;4.10;99.90
7814;DHT22;3952;48.364;16.022;2023-02-10T08:24:12;4.40;99.90
7814;DHT22;3952;48.364;16.022;2023-02-10T08:26:39;4.80;99.90
7814;DHT22;3952;48.364;16.022;2023-02-10T08:29:09;5.10;99.90
7814;DHT22;3952;48.364;16.022;2023-02-10T08:31:36;5.50;99.90
7814;DHT22;3952;48.364;16.022;2023-02-10T08:34:03;5.90;99.90
7814;DHT22;3952;48.364;16.022;2023-02-10T08:36:30;6.20;99.90
7814;DHT22;3952;48.364;16.022;2023-02-10T08:38:58;6.50;99.90
7814;DHT22;3952;48.364;16.022;2023-02-10T08:41:25;6.60;99.90
7814;DHT22;3952;48.364;16.022;2023-02-10T08:43:56;6.80;99.90
7814;DHT22;3952;48.364;16.022;2023-02-10T08:46:25;7.10;99.90
7814;DHT22;3952;48.364;16.022;2023-02-10T08:48:52;7.30;99.90
7814;DHT22;3952;48.364;16.022;2023-02-10T08:51:19;7.50;99.90
7814;DHT22;3952;48.364;16.022;2023-02-10T08:53:47;7.70;99.90
7814;DHT22;3952;48.364;16.022;2023-02-10T08:56:16;7.80;99.70
7814;DHT22;3952;48.364;16.022;2023-02-10T08:58:44;8.00;98.70
7814;DHT22;3952;48.364;16.022;2023-02-10T09:01:13;8.20;98.00
7814;DHT22;3952;48.364;16.022;2023-02-10T09:03:43;8.10;97.60
7814;DHT22;3952;48.364;16.022;2023-02-10T09:06:14;8.10;97.40
7814;DHT22;3952;48.364;16.022;2023-02-10T09:08:42;8.00;97.40
7814;DHT22;3952;48.364;16.022;2023-02-10T09:11:09;8.30;97.50
7814;DHT22;3952;48.364;16.022;2023-02-10T09:13:36;8.50;97.10
7814;DHT22;3952;48.364;16.022;2023-02-10T09:16:04;8.70;96.90
7814;DHT22;3952;48.364;16.022;2023-02-10T09:18:32;8.80;97.00
7814;DHT22;3952;48.364;16.022;2023-02-10T09:21:01;8.80;96.50
7814;DHT22;3952;48.364;16.022;2023-02-10T09:23:28;8.70;97.10
7814;DHT22;3952;48.364;16.022;2023-02-10T09:25:57;8.60;97.40
7814;DHT22;3952;48.364;16.022;2023-02-10T09:28:24;8.50;97.20
7814;DHT22;3952;48.364;16.022;2023-02-10T09:30:52;8.30;98.10
7814;DHT22;3952;48.364;16.022;2023-02-10T09:33:19;8.80;98.70
7814;DHT22;3952;48.364;16.022;2023-02-10T09:35:46;9.30;97.50
7814;DHT22;3952;48.364;16.022;2023-02-10T09:38:15;9.30;96.30
7814;DHT22;3952;48.364;16.022;2023-02-10T09:40:50;9.00;96.30
7814;DHT22;3952;48.364;16.022;2023-02-10T09:43:28;8.80;96.00
7814;DHT22;3952;48.364;16.022;2023-02-10T09:46:04;8.70;96.80
7814;DHT22;3952;48.364;16.022;2023-02-10T09:48:39;8.70;96.80
7814;DHT22;3952;48.364;16.022;2023-02-10T09:51:12;8.80;96.50
7814;DHT22;3952;48.364;16.022;2023-02-10T09:53:43;8.50;96.80
7814;DHT22;3952;48.364;16.022;2023-02-10T09:56:16;8.10;97.70
7814;DHT22;3952;48.364;16.022;2023-02-10T09:58:46;8.10;98.60
7814;DHT22;3952;48.364;16.022;2023-02-10T10:01:17;8.20;97.50
7814;DHT22;3952;48.364;16.022;2023-02-10T10:03:48;8.10;98.10
7814;DHT22;3952;48.364;16.022;2023-02-10T10:06:21;8.40;97.90
7814;DHT22;3952;48.364;16.022;2023-02-10T10:08:59;8.50;96.80
7814;DHT22;3952;48.364;16.022;2023-02-10T10:11:35;9.40;97.50
7814;DHT22;3952;48.364;16.022;2023-02-10T10:14:04;8.30;97.10
7814;DHT22;3952;48.364;16.022;2023-02-10T10:16:53;8.10;98.10
7814;DHT22;3952;48.364;16.022;2023-02-10T10:19:30;8.10;97.50
7814;DHT22;3952;48.364;16.022;2023-02-10T10:22:07;8.00;98.20
7814;DHT22;3952;48.364;16.022;2023-02-10T10:24:50;8.10;98.50
7814;DHT22;3952;48.364;16.022;2023-02-10T10:27:28;8.10;98.00
7814;DHT22;3952;48.364;16.022;2023-02-10T10:30:03;8.20;96.90
7814;DHT22;3952;48.364;16.022;2023-02-10T10:32:40;8.30;98.00
7814;DHT22;3952;48.364;16.022;2023-02-10T10:35:15;8.50;97.60
7814;DHT22;3952;48.364;16.022;2023-02-10T10:37:43;8.80;97.40
7814;DHT22;3952;48.364;16.022;2023-02-10T10:40:16;9.00;97.00
7814;DHT22;3952;48.364;16.022;2023-02-10T10:42:46;7.80;95.60
7814;DHT22;3952;48.364;16.022;2023-02-10T10:45:16;8.50;95.40
7814;DHT22;3952;48.364;16.022;2023-02-10T10:47:48;8.10;95.90
7814;DHT22;3952;48.364;16.022;2023-02-10T10:50:20;8.10;96.10
7814;DHT22;3952;48.364;16.022;2023-02-10T10:52:50;9.20;96.10
7814;DHT22;3952;48.364;16.022;2023-02-10T10:55:22;7.90;95.30
7814;DHT22;3952;48.364;16.022;2023-02-10T10:57:52;7.80;96.30
7814;DHT22;3952;48.364;16.022;2023-02-10T11:00:23;8.10;96.70
7814;DHT22;3952;48.364;16.022;2023-02-10T11:02:55;8.50;95.60
7814;DHT22;3952;48.364;16.022;2023-02-10T11:05:27;8.80;94.50
7814;DHT22;3952;48.364;16.022;2023-02-10T11:07:56;8.90;94.40
7814;DHT22;3952;48.364;16.022;2023-02-10T11:10:27;8.90;93.30
7814;DHT22;3952;48.364;16.022;2023-02-10T11:12:55;8.70;93.50
7814;DHT22;3952;48.364;16.022;2023-02-10T11:15:39;8.40;94.10
7814;DHT22;3952;48.364;16.022;2023-02-10T11:18:13;8.20;94.80
7814;DHT22;3952;48.364;16.022;2023-02-10T11:20:52;8.00;93.50
7814;DHT22;3952;48.364;16.022;2023-02-10T11:23:20;7.70;94.90
7814;DHT22;3952;48.364;16.022;2023-02-10T11:25:56;7.50;94.60
7814;DHT22;3952;48.364;16.022;2023-02-10T11:28:26;7.30;94.40
7814;DHT22;3952;48.364;16.022;2023-02-10T11:30:59;7.00;94.50
7814;DHT22;3952;48.364;16.022;2023-02-10T11:33:30;6.90;94.20
7814;DHT22;3952;48.364;16.022;2023-02-10T11:36:02;6.80;95.40
7814;DHT22;3952;48.364;16.022;2023-02-10T11:38:30;6.80;96.00
7814;DHT22;3952;48.364;16.022;2023-02-10T11:41:01;6.90;96.50
7814;DHT22;3952;48.364;16.022;2023-02-10T11:43:32;7.00;95.70
7814;DHT22;3952;48.364;16.022;2023-02-10T11:46:03;6.90;96.40
7814;DHT22;3952;48.364;16.022;2023-02-10T11:48:31;6.90;95.70
7814;DHT22;3952;48.364;16.022;2023-02-10T11:51:04;7.00;95.60
7814;DHT22;3952;48.364;16.022;2023-02-10T11:53:33;7.10;96.20
7814;DHT22;3952;48.364;16.022;2023-02-10T11:56:05;7.10;95.20
7814;DHT22;3952;48.364;16.022;2023-02-10T11:58:54;7.00;95.20
7814;DHT22;3952;48.364;16.022;2023-02-10T12:01:40;7.00;95.30
7814;DHT22;3952;48.364;16.022;2023-02-10T12:04:28;6.90;95.10
7814;DHT22;3952;48.364;16.022;2023-02-10T12:07:01;6.90;95.30
7814;DHT22;3952;48.364;16.022;2023-02-10T12:09:33;6.80;95.20
7814;DHT22;3952;48.364;16.022;2023-02-10T12:12:11;6.80;95.70
7814;DHT22;3952;48.364;16.022;2023-02-10T12:14:49;7.00;96.10
7814;DHT22;3952;48.364;16.022;2023-02-10T12:17:25;7.10;96.00
7814;DHT22;3952;48.364;16.022;2023-02-10T12:20:04;7.10;95.30
7814;DHT22;3952;48.364;16.022;2023-02-10T12:22:42;7.10;95.10
7814;DHT22;3952;48.364;16.022;2023-02-10T12:25:17;7.20;95.20
7814;DHT22;3952;48.364;16.022;2023-02-10T12:28:02;7.20;93.40
7814;DHT22;3952;48.364;16.022;2023-02-10T12:30:39;7.20;94.10
7814;DHT22;3952;48.364;16.022;2023-02-10T12:33:35;7.30;93.70
7814;DHT22;3952;48.364;16.022;2023-02-10T12:36:13;7.30;93.00
7814;DHT22;3952;48.364;16.022;2023-02-10T12:38:55;7.30;93.20
7814;DHT22;3952;48.364;16.022;2023-02-10T12:41:30;7.30;93.20
7814;DHT22;3952;48.364;16.022;2023-02-10T12:44:21;7.30;93.90
7814;DHT22;3952;48.364;16.022;2023-02-10T12:46:57;7.20;93.40
7814;DHT22;3952;48.364;16.022;2023-02-10T12:49:38;7.20;93.40
7814;DHT22;3952;48.364;16.022;2023-02-10T12:52:10;7.20;93.30
7814;DHT22;3952;48.364;16.022;2023-02-10T12:54:44;7.10;92.50
7814;DHT22;3952;48.364;16.022;2023-02-10T12:57:17;7.00;93.00
7814;DHT22;3952;48.364;16.022;2023-02-10T12:59:52;7.00;92.70
7814;DHT22;3952;48.364;16.022;2023-02-10T13:02:25;7.00;93.60
7814;DHT22;3952;48.364;16.022;2023-02-10T13:04:55;7.00;93.80
7814;DHT22;3952;48.364;16.022;2023-02-10T13:07:34;7.00;94.00
7814;DHT22;3952;48.364;16.022;2023-02-10T13:10:14;7.00;93.60
7814;DHT22;3952;48.364;16.022;2023-02-10T13:12:44;7.00;93.40
7814;DHT22;3952;48.364;16.022;2023-02-10T13:15:17;6.90;93.40
7814;DHT22;3952;48.364;16.022;2023-02-10T13:17:47;7.00;93.40
7814;DHT22;3952;48.364;16.022;2023-02-10T13:20:44;7.00;93.80
7814;DHT22;3952;48.364;16.022;2023-02-10T13:23:22;7.00;93.40
7814;DHT22;3952;48.364;16.022;2023-02-10T13:26:01;7.00;93.30
7814;DHT22;3952;48.364;16.022;2023-02-10T13:28:45;7.00;94.00
7814;DHT22;3952;48.364;16.022;2023-02-10T13:31:37;7.00;94.30
7814;DHT22;3952;48.364;16.022;2023-02-10T13:34:16;6.90;93.90
7814;DHT22;3952;48.364;16.022;2023-02-10T13:36:48;6.90;94.10
7814;DHT22;3952;48.364;16.022;2023-02-10T13:39:20;6.90;94.70
7814;DHT22;3952;48.364;16.022;2023-02-10T13:41:50;6.60;94.50
7814;DHT22;3952;48.364;16.022;2023-02-10T13:44:26;6.40;94.70
7814;DHT22;3952;48.364;16.022;2023-02-10T13:47:08;6.30;94.90
7814;DHT22;3952;48.364;16.022;2023-02-10T13:49:46;6.20;95.40
7814;DHT22;3952;48.364;16.022;2023-02-10T13:52:17;6.30;95.60
7814;DHT22;3952;48.364;16.022;2023-02-10T13:54:55;6.30;96.00
7814;DHT22;3952;48.364;16.022;2023-02-10T13:57:28;6.30;95.80
7814;DHT22;3952;48.364;16.022;2023-02-10T14:00:15;6.30;95.50
7814;DHT22;3952;48.364;16.022;2023-02-10T14:02:58;6.50;95.50
7814;DHT22;3952;48.364;16.022;2023-02-10T14:05:28;6.20;95.70
7814;DHT22;3952;48.364;16.022;2023-02-10T14:07:56;6.20;96.00
7814;DHT22;3952;48.364;16.022;2023-02-10T14:10:31;6.20;96.30
7814;DHT22;3952;48.364;16.022;2023-02-10T14:13:02;6.20;96.60
7814;DHT22;3952;48.364;16.022;2023-02-10T14:15:31;6.20;96.20
7814;DHT22;3952;48.364;16.022;2023-02-10T14:18:03;6.20;96.50
7814;DHT22;3952;48.364;16.022;2023-02-10T14:20:34;6.00;96.20
7814;DHT22;3952;48.364;16.022;2023-02-10T14:23:03;5.90;96.40
7814;DHT22;3952;48.364;16.022;2023-02-10T14:25:36;5.80;96.30
7814;DHT22;3952;48.364;16.022;2023-02-10T14:28:04;5.80;96.70
7814;DHT22;3952;48.364;16.022;2023-02-10T14:30:38;5.80;97.00
7814;DHT22;3952;48.364;16.022;2023-02-10T14:33:18;5.70;96.70
7814;DHT22;3952;48.364;16.022;2023-02-10T14:35:51;5.60;97.30
7814;DHT22;3952;48.364;16.022;2023-02-10T14:38:24;5.50;97.50
7814;DHT22;3952;48.364;16.022;2023-02-10T14:40:53;5.50;97.60
7814;DHT22;3952;48.364;16.022;2023-02-10T14:43:29;5.50;97.60
7814;DHT22;3952;48.364;16.022;2023-02-10T14:45:58;5.40;97.70
7814;DHT22;3952;48.364;16.022;2023-02-10T14:48:30;5.40;98.10
7814;DHT22;3952;48.364;16.022;2023-02-10T14:51:16;5.40;98.30
7814;DHT22;3952;48.364;16.022;2023-02-10T14:53:45;5.40;98.40
7814;DHT22;3952;48.364;16.022;2023-02-10T14:56:21;5.40;98.00
7814;DHT22;3952;48.364;16.022;2023-02-10T14:58:49;5.40;98.10
7814;DHT22;3952;48.364;16.022;2023-02-10T15:01:25;5.40;98.40
7814;DHT22;3952;48.364;16.022;2023-02-10T15:03:55;5.50;98.10
7814;DHT22;3952;48.364;16.022;2023-02-10T15:06:26;5.50;98.00
7814;DHT22;3952;48.364;16.022;2023-02-10T15:08:56;5.50;97.50
7814;DHT22;3952;48.364;16.022;2023-02-10T15:11:27;5.50;97.30
7814;DHT22;3952;48.364;16.022;2023-02-10T15:14:16;5.40;97.80
7814;DHT22;3952;48.364;16.022;2023-02-10T15:16:45;5.40;97.40
7814;DHT22;3952;48.364;16.022;2023-02-10T15:19:16;5.40;97.80
7814;DHT22;3952;48.364;16.022;2023-02-10T15:21:45;5.30;97.30
7814;DHT22;3952;48.364;16.022;2023-02-10T15:24:26;5.20;97.90
7814;DHT22;3952;48.364;16.022;2023-02-10T15:26:54;5.10;97.80
7814;DHT22;3952;48.364;16.022;2023-02-10T15:29:21;5.10;98.20
7814;DHT22;3952;48.364;16.022;2023-02-10T15:31:57;5.00;98.00
7814;DHT22;3952;48.364;16.022;2023-02-10T15:34:27;4.90;98.30
7814;DHT22;3952;48.364;16.022;2023-02-10T15:40:19;4.80;98.80
7814;DHT22;3952;48.364;16.022;2023-02-10T15:42:56;4.70;99.10
7814;DHT22;3952;48.364;16.022;2023-02-10T15:45:24;4.70;99.20
7814;DHT22;3952;48.364;16.022;2023-02-10T15:47:59;4.60;99.40
7814;DHT22;3952;48.364;16.022;2023-02-10T15:50:30;4.60;99.50
7814;DHT22;3952;48.364;16.022;2023-02-10T15:52:57;4.50;99.60
7814;DHT22;3952;48.364;16.022;2023-02-10T15:55:29;4.50;99.80
7814;DHT22;3952;48.364;16.022;2023-02-10T15:57:57;4.40;99.90
7814;DHT22;3952;48.364;16.022;2023-02-10T16:00:27;4.30;99.90
7814;DHT22;3952;48.364;16.022;2023-02-10T16:02:55;4.30;99.90
7814;DHT22;3952;48.364;16.022;2023-02-10T16:05:23;4.30;99.90
7814;DHT22;3952;48.364;16.022;2023-02-10T16:07:52;4.20;99.90
7814;DHT22;3952;48.364;16.022;2023-02-10T16:10:20;4.20;99.90
7814;DHT22;3952;48.364;16.022;2023-02-10T16:12:49;4.10;99.90
7814;DHT22;3952;48.364;16.022;2023-02-10T16:15:19;4.10;99.90
7814;DHT22;3952;48.364;16.022;2023-02-10T16:17:48;4.00;99.90
7814;DHT22;3952;48.364;16.022;2023-02-10T16:20:19;4.00;99.90
7814;DHT22;3952;48.364;16.022;2023-02-10T16:22:46;3.90;99.90